createdAt,value
2022-10-12T00:00:36.619Z,5.80
2022-10-12T00:03:23.676Z,5.37
2022-10-12T00:06:12.374Z,5.27
2022-10-12T00:08:59.027Z,5.20
2022-10-12T00:11:45.179Z,5.37
2022-10-12T00:14:36.082Z,5.07
2022-10-12T00:17:22.377Z,5.43
2022-10-12T00:20:09.838Z,4.67
2022-10-12T00:22:55.966Z,5.70
2022-10-12T00:25:43.017Z,9.23
2022-10-12T00:28:29.622Z,6.47
2022-10-12T00:31:21.320Z,5.40
2022-10-12T00:34:07.669Z,5.53
2022-10-12T00:36:56.981Z,4.97
2022-10-12T00:39:43.522Z,5.10
2022-10-12T00:42:30.032Z,4.63
2022-10-12T00:45:16.828Z,4.70
2022-10-12T00:48:04.673Z,4.47
2022-10-12T00:50:50.984Z,4.63
2022-10-12T00:53:41.859Z,4.67
2022-10-12T00:56:32.793Z,4.90
2022-10-12T00:59:23.238Z,4.50
2022-10-12T01:02:10.026Z,4.50
2022-10-12T01:04:58.498Z,5.93
2022-10-12T01:07:45.049Z,4.57
2022-10-12T01:10:31.397Z,13.17
2022-10-12T01:13:18.246Z,6.53
2022-10-12T01:16:10.522Z,4.30
2022-10-12T01:19:04.050Z,4.33
2022-10-12T01:21:56.599Z,4.07
2022-10-12T01:24:50.573Z,4.43
2022-10-12T01:27:44.934Z,5.13
2022-10-12T01:30:37.489Z,4.40
2022-10-12T01:33:31.412Z,4.37
2022-10-12T01:36:21.712Z,6.07
2022-10-12T01:39:16.637Z,4.87
2022-10-12T01:42:09.266Z,4.10
2022-10-12T01:45:03.236Z,3.37
2022-10-12T01:47:53.404Z,4.00
2022-10-12T01:50:49.650Z,3.70
2022-10-12T01:53:44.446Z,3.77
2022-10-12T01:56:40.843Z,4.00
2022-10-12T01:59:37.899Z,3.90
2022-10-12T02:02:31.581Z,3.90
2022-10-12T02:05:27.928Z,4.80
2022-10-12T02:08:20.472Z,4.23
2022-10-12T02:11:10.999Z,4.37
2022-10-12T02:14:00.337Z,3.90
2022-10-12T02:16:51.206Z,4.50
2022-10-12T02:19:41.175Z,4.67
2022-10-12T02:22:34.335Z,5.53
2022-10-12T02:25:23.201Z,4.50
2022-10-12T02:28:12.379Z,4.33
2022-10-12T02:31:05.189Z,4.93
2022-10-12T02:33:59.771Z,5.00
2022-10-12T02:36:50.981Z,4.73
2022-10-12T02:39:45.126Z,5.13
2022-10-12T02:43:05.279Z,5.13
2022-10-12T02:45:46.051Z,5.13
2022-10-12T02:48:33.381Z,4.53
2022-10-12T02:51:22.415Z,4.10
2022-10-12T02:54:09.087Z,4.90
2022-10-12T02:56:56.666Z,3.87
2022-10-12T02:59:43.199Z,4.83
2022-10-12T03:02:29.527Z,4.87
2022-10-12T03:05:16.322Z,4.30
2022-10-12T03:08:02.650Z,4.23
2022-10-12T03:10:49.248Z,4.80
2022-10-12T03:13:36.831Z,4.97
2022-10-12T03:16:23.812Z,4.73
2022-10-12T03:19:10.290Z,5.63
2022-10-12T03:21:56.790Z,4.60
2022-10-12T03:24:42.902Z,4.87
2022-10-12T03:27:29.485Z,5.10
2022-10-12T03:30:17.358Z,6.03
2022-10-12T03:33:03.921Z,4.67
2022-10-12T03:35:50.397Z,5.10
2022-10-12T03:38:37.267Z,5.27
2022-10-12T03:41:23.822Z,4.43
2022-10-12T03:44:10.134Z,4.63
2022-10-12T03:46:57.750Z,5.07
2022-10-12T03:49:43.881Z,5.20
2022-10-12T03:52:30.092Z,4.57
2022-10-12T03:55:16.958Z,5.80
2022-10-12T03:58:03.422Z,4.70
2022-10-12T04:00:55.213Z,5.07
2022-10-12T04:03:42.829Z,5.17
2022-10-12T04:06:29.411Z,4.70
2022-10-12T04:09:15.562Z,5.30
2022-10-12T04:12:02.115Z,4.67
2022-10-12T04:14:48.672Z,4.83
2022-10-12T04:17:35.091Z,5.23
2022-10-12T04:20:22.813Z,5.20
2022-10-12T04:23:09.107Z,5.57
2022-10-12T04:25:55.470Z,9.23
2022-10-12T04:28:41.974Z,10.27
2022-10-12T04:31:28.647Z,9.67
2022-10-12T04:34:14.978Z,10.93
2022-10-12T04:37:02.659Z,7.77
2022-10-12T04:39:49.222Z,8.07
2022-10-12T04:42:35.452Z,8.00
2022-10-12T04:45:22.185Z,7.00
2022-10-12T04:48:08.691Z,4.87
2022-10-12T04:50:54.900Z,5.70
2022-10-12T04:53:42.561Z,5.00
2022-10-12T04:56:29.305Z,4.83
2022-10-12T04:59:15.467Z,5.00
2022-10-12T05:02:02.061Z,5.00
2022-10-12T05:04:48.282Z,5.10
2022-10-12T05:07:34.529Z,5.53
2022-10-12T05:10:22.197Z,5.17
2022-10-12T05:13:08.857Z,5.23
2022-10-12T05:15:55.149Z,5.63
2022-10-12T05:18:41.811Z,5.27
2022-10-12T05:21:28.184Z,5.57
2022-10-12T05:24:15.118Z,5.00
2022-10-12T05:27:03.253Z,4.70
2022-10-12T05:29:49.813Z,4.63
2022-10-12T05:32:36.247Z,5.60
2022-10-12T05:35:22.860Z,5.17
2022-10-12T05:38:09.402Z,4.77
2022-10-12T05:41:00.365Z,4.87
2022-10-12T05:43:48.522Z,5.17
2022-10-12T05:46:35.113Z,4.90
2022-10-12T05:49:21.739Z,4.63
2022-10-12T05:52:08.357Z,4.90
2022-10-12T05:54:54.546Z,4.50
2022-10-12T05:57:41.303Z,5.33
2022-10-12T06:00:29.144Z,6.47
2022-10-12T06:03:18.501Z,5.40
2022-10-12T06:06:06.919Z,6.70
2022-10-12T06:08:53.524Z,6.30
2022-10-12T06:11:39.950Z,6.17
2022-10-12T06:14:26.283Z,8.00
2022-10-12T06:17:14.077Z,9.20
2022-10-12T06:20:00.580Z,7.90
2022-10-12T06:22:47.162Z,7.47
2022-10-12T06:25:33.690Z,7.47
2022-10-12T06:28:21.626Z,6.83
2022-10-12T06:31:07.902Z,8.73
2022-10-12T06:33:55.590Z,8.33
2022-10-12T06:36:42.397Z,8.67
2022-10-12T06:39:28.541Z,8.13
2022-10-12T06:42:15.201Z,7.40
2022-10-12T06:45:01.453Z,7.47
2022-10-12T06:47:47.828Z,7.27
2022-10-12T06:50:35.728Z,7.53
2022-10-12T06:53:22.162Z,6.10
2022-10-12T06:56:09.554Z,5.73
2022-10-12T06:58:56.592Z,6.50
2022-10-12T07:01:43.330Z,6.47
2022-10-12T07:04:29.751Z,7.53
2022-10-12T07:07:17.454Z,6.57
2022-10-12T07:10:05.264Z,6.53
2022-10-12T07:12:51.784Z,6.37
2022-10-12T07:15:38.131Z,7.70
2022-10-12T07:18:25.228Z,6.47
2022-10-12T07:21:12.148Z,6.90
2022-10-12T07:23:59.716Z,6.53
2022-10-12T07:26:46.378Z,6.60
2022-10-12T07:29:33.394Z,8.10
2022-10-12T07:32:19.737Z,7.40
2022-10-12T07:35:06.802Z,7.73
2022-10-12T07:37:53.092Z,7.30
2022-10-12T07:40:40.585Z,7.40
2022-10-12T07:43:27.134Z,6.80
2022-10-12T07:46:13.759Z,6.83
2022-10-12T07:49:00.190Z,6.77
2022-10-12T07:51:47.388Z,7.20
2022-10-12T07:54:33.981Z,7.73
2022-10-12T07:57:21.521Z,7.70
2022-10-12T08:00:09.485Z,8.30
2022-10-12T08:02:56.051Z,8.25
2022-10-12T08:05:42.244Z,7.75
2022-10-12T08:08:28.529Z,8.65
2022-10-12T08:11:15.957Z,8.27
2022-10-12T08:14:03.605Z,10.98
2022-10-12T08:16:49.944Z,7.88
2022-10-12T08:19:37.542Z,7.72
2022-10-12T08:22:23.789Z,7.40
2022-10-12T08:25:10.298Z,7.15
2022-10-12T08:27:56.666Z,7.35
2022-10-12T08:30:44.218Z,6.97
2022-10-12T08:33:30.773Z,7.78
2022-10-12T08:36:17.317Z,7.43
2022-10-12T08:39:06.794Z,6.55
2022-10-12T08:42:02.537Z,6.30
2022-10-12T08:45:06.913Z,6.78
2022-10-12T08:47:58.102Z,6.68
2022-10-12T08:50:49.690Z,6.50
2022-10-12T08:53:45.043Z,6.70
2022-10-12T08:56:32.200Z,6.32
2022-10-12T08:59:20.338Z,6.55
2022-10-12T09:02:23.664Z,5.80
2022-10-12T09:05:16.199Z,13.13
2022-10-12T09:08:07.987Z,7.15
2022-10-12T09:11:00.937Z,6.40
2022-10-12T09:13:54.527Z,6.18
2022-10-12T09:16:43.914Z,6.00
2022-10-12T09:19:36.242Z,5.93
2022-10-12T09:22:23.991Z,5.82
2022-10-12T09:25:14.894Z,5.47
2022-10-12T09:28:14.342Z,6.60
2022-10-12T09:31:23.022Z,5.88
2022-10-12T09:34:13.519Z,5.00
2022-10-12T09:37:04.059Z,5.68
2022-10-12T09:39:53.029Z,5.78
2022-10-12T09:42:39.286Z,5.25
2022-10-12T09:45:26.467Z,9.35
2022-10-12T09:48:16.226Z,5.82
2022-10-12T09:51:04.753Z,4.90
2022-10-12T09:53:56.735Z,4.57
2022-10-12T09:56:51.160Z,4.90
2022-10-12T09:59:40.126Z,5.50
2022-10-12T10:02:27.573Z,5.22
2022-10-12T10:05:25.920Z,5.20
2022-10-12T10:08:21.303Z,4.90
2022-10-12T10:11:15.589Z,4.70
2022-10-12T10:14:03.345Z,3.97
2022-10-12T10:16:52.317Z,3.90
2022-10-12T10:19:38.867Z,4.57
2022-10-12T10:22:26.217Z,4.60
2022-10-12T10:25:21.694Z,4.38
2022-10-12T10:28:23.360Z,4.68
2022-10-12T10:31:21.769Z,3.47
2022-10-12T10:34:21.739Z,4.15
2022-10-12T10:37:14.515Z,3.67
2022-10-12T10:40:02.210Z,5.10
2022-10-12T10:42:51.954Z,3.88
2022-10-12T10:48:53.125Z,3.72
2022-10-12T10:51:47.733Z,4.22
2022-10-12T10:54:38.453Z,5.68
2022-10-12T10:57:26.664Z,4.38
2022-10-12T11:00:38.091Z,3.88
2022-10-12T11:03:27.513Z,4.43
2022-10-12T11:06:21.925Z,3.58
2022-10-12T11:09:14.262Z,3.88
2022-10-12T11:12:05.764Z,3.90
2022-10-12T11:14:56.828Z,3.90
2022-10-12T11:17:47.367Z,4.07
2022-10-12T11:20:51.245Z,4.32
2022-10-12T11:23:46.753Z,3.58
2022-10-12T11:26:38.938Z,3.47
2022-10-12T11:29:25.700Z,4.38
2022-10-12T11:32:23.625Z,4.97
2022-10-12T11:35:17.182Z,3.53
2022-10-12T11:38:12.844Z,4.07
2022-10-12T11:41:31.439Z,3.75
2022-10-12T11:44:18.928Z,3.70
2022-10-12T11:47:12.130Z,4.00
2022-10-12T11:50:01.369Z,3.22
2022-10-12T11:52:51.471Z,3.70
2022-10-12T11:55:53.222Z,3.50
2022-10-12T11:59:01.354Z,3.70
2022-10-12T12:01:58.824Z,3.75
2022-10-12T12:04:47.130Z,3.63
2022-10-12T12:07:56.693Z,3.70
2022-10-12T12:10:54.716Z,3.60
2022-10-12T12:13:42.595Z,3.53
2022-10-12T12:16:33.202Z,3.42
2022-10-12T12:19:38.540Z,3.60
2022-10-12T12:22:52.018Z,3.40
2022-10-12T12:25:38.399Z,3.80
2022-10-12T12:28:26.036Z,3.77
2022-10-12T12:31:17.242Z,3.30
2022-10-12T12:34:07.696Z,3.65
2022-10-12T12:36:54.446Z,3.72
2022-10-12T12:39:43.598Z,4.30
2022-10-12T12:42:34.222Z,3.72
2022-10-12T12:45:42.272Z,3.75
2022-10-12T12:49:01.853Z,3.70
2022-10-12T12:51:48.312Z,3.47
2022-10-12T12:54:37.032Z,3.53
2022-10-12T12:57:49.940Z,4.03
2022-10-12T13:04:00.165Z,3.78
2022-10-12T13:07:16.470Z,3.13
2022-10-12T13:10:25.413Z,3.97
2022-10-12T13:13:38.857Z,3.83
2022-10-12T13:19:55.529Z,3.60
2022-10-12T13:22:46.360Z,3.72
2022-10-12T13:25:36.687Z,3.92
2022-10-12T13:28:26.225Z,3.40
2022-10-12T13:31:19.464Z,4.13
2022-10-12T13:34:13.841Z,3.75
2022-10-12T13:37:02.863Z,3.92
2022-10-12T13:39:52.349Z,5.07
2022-10-12T13:42:39.007Z,4.25
2022-10-12T13:45:25.223Z,3.67
2022-10-12T13:48:34.116Z,4.97
2022-10-12T13:51:27.609Z,5.00
2022-10-12T13:54:21.125Z,5.57
2022-10-12T13:57:17.866Z,4.63
2022-10-12T14:00:11.063Z,4.57
2022-10-12T14:02:59.558Z,7.45
2022-10-12T14:05:47.030Z,6.25
2022-10-12T14:08:35.084Z,4.60
2022-10-12T14:11:21.710Z,3.65
2022-10-12T14:14:19.366Z,4.70
2022-10-12T14:17:05.832Z,4.10
2022-10-12T14:19:53.694Z,4.05
2022-10-12T14:22:40.490Z,3.58
2022-10-12T14:25:29.732Z,4.07
2022-10-12T14:28:31.338Z,4.35
2022-10-12T14:31:19.373Z,4.40
2022-10-12T14:34:24.191Z,4.00
2022-10-12T14:37:25.082Z,3.72
2022-10-12T14:40:33.709Z,5.50
2022-10-12T14:43:24.141Z,4.85
2022-10-12T14:46:11.017Z,4.32
2022-10-12T14:48:59.193Z,4.32
2022-10-12T14:51:46.433Z,4.60
2022-10-12T14:54:32.780Z,4.38
2022-10-12T14:57:20.353Z,5.85
2022-10-12T15:00:07.733Z,4.93
2022-10-12T15:02:54.042Z,4.22
2022-10-12T15:05:41.695Z,5.50
2022-10-12T15:08:27.913Z,4.72
2022-10-12T15:11:25.873Z,5.88
2022-10-12T15:14:16.297Z,4.43
2022-10-12T15:17:03.337Z,5.00
2022-10-12T15:19:51.603Z,4.78
2022-10-12T15:22:39.191Z,4.25
2022-10-12T15:25:29.181Z,4.90
2022-10-12T15:28:15.899Z,4.55
2022-10-12T15:31:19.184Z,4.47
2022-10-12T15:34:07.058Z,4.70
2022-10-12T15:36:53.917Z,5.55
2022-10-12T15:39:42.623Z,4.88
2022-10-12T15:42:28.881Z,4.50
2022-10-12T15:45:21.398Z,4.35
2022-10-12T15:48:09.132Z,4.25
2022-10-12T15:50:56.047Z,4.88
2022-10-12T15:53:42.474Z,4.68
2022-10-12T15:56:30.336Z,4.88
2022-10-12T15:59:16.976Z,4.13
2022-10-12T16:02:03.449Z,5.07
2022-10-12T16:04:49.974Z,4.10
2022-10-12T16:07:36.601Z,4.70
2022-10-12T16:10:25.348Z,5.05
2022-10-12T16:13:14.644Z,4.72
2022-10-12T16:16:01.593Z,4.15
2022-10-12T16:18:48.164Z,5.03
2022-10-12T16:21:34.950Z,4.40
2022-10-12T16:24:21.232Z,5.43
2022-10-12T16:27:07.398Z,5.05
2022-10-12T16:29:54.949Z,5.22
2022-10-12T16:32:41.482Z,5.40
2022-10-12T16:35:27.936Z,6.13
2022-10-12T16:38:15.187Z,6.50
2022-10-12T16:41:01.624Z,6.57
2022-10-12T16:43:48.620Z,6.07
2022-10-12T16:46:36.959Z,6.87
2022-10-12T16:49:23.523Z,5.30
2022-10-12T16:52:10.407Z,6.43
2022-10-12T16:54:56.993Z,6.27
2022-10-12T16:57:43.353Z,6.40
2022-10-12T17:00:29.501Z,5.77
2022-10-12T17:03:17.254Z,7.07
2022-10-12T17:06:03.746Z,6.10
2022-10-12T17:08:49.960Z,6.17
2022-10-12T17:11:38.038Z,7.03
2022-10-12T17:14:24.771Z,8.47
2022-10-12T17:17:11.190Z,8.37
2022-10-12T17:19:58.920Z,9.10
2022-10-12T17:22:45.517Z,10.13
2022-10-12T17:25:31.815Z,8.53
2022-10-12T17:28:18.896Z,7.50
2022-10-12T17:31:09.246Z,7.67
2022-10-12T17:33:58.322Z,8.33
2022-10-12T17:36:46.010Z,8.30
2022-10-12T17:39:34.417Z,9.40
2022-10-12T17:42:22.891Z,9.17
2022-10-12T17:45:09.899Z,9.80
2022-10-12T17:47:56.319Z,9.50
2022-10-12T17:50:43.147Z,8.77
2022-10-12T17:53:31.099Z,8.20
2022-10-12T17:56:19.273Z,8.70
2022-10-12T17:59:06.167Z,8.60
2022-10-12T18:01:53.466Z,8.70
2022-10-12T18:04:39.665Z,7.90
2022-10-12T18:07:26.259Z,8.30
2022-10-12T18:10:14.214Z,6.60
2022-10-12T18:13:00.835Z,6.10
2022-10-12T18:15:46.982Z,6.13
2022-10-12T18:18:33.626Z,6.17
2022-10-12T18:21:21.509Z,6.53
2022-10-12T18:24:16.008Z,6.23
2022-10-12T18:27:04.072Z,7.03
2022-10-12T18:29:50.745Z,7.50
2022-10-12T18:32:37.113Z,7.57
2022-10-12T18:35:23.267Z,7.70
2022-10-12T18:38:10.326Z,6.73
2022-10-12T18:41:00.036Z,7.00
2022-10-12T18:43:48.206Z,6.63
2022-10-12T18:46:37.065Z,7.47
2022-10-12T18:49:23.338Z,6.37
2022-10-12T18:52:10.547Z,6.10
2022-10-12T18:54:56.994Z,6.47
2022-10-12T18:57:43.175Z,6.50
2022-10-12T19:00:31.509Z,6.10
2022-10-12T19:03:18.353Z,6.50
2022-10-12T19:06:07.474Z,5.93
2022-10-12T19:08:55.463Z,6.60
2022-10-12T19:11:42.066Z,6.93
2022-10-12T19:14:28.637Z,6.13
2022-10-12T19:17:16.342Z,6.30
2022-10-12T19:20:03.619Z,6.33
2022-10-12T19:22:50.363Z,5.93
2022-10-12T19:25:38.581Z,6.50
2022-10-12T19:28:25.333Z,6.70
2022-10-12T19:31:14.042Z,6.10
2022-10-12T19:34:03.963Z,6.00
2022-10-12T19:36:50.946Z,6.00
2022-10-12T19:39:37.414Z,6.93
2022-10-12T19:42:23.671Z,6.50
2022-10-12T19:45:10.698Z,6.93
2022-10-12T19:47:56.986Z,6.87
2022-10-12T19:50:44.772Z,6.97
2022-10-12T19:53:31.517Z,6.50
2022-10-12T19:56:20.732Z,6.97
2022-10-12T19:59:06.993Z,6.77
2022-10-12T20:01:53.254Z,6.93
2022-10-12T20:04:39.710Z,6.73
2022-10-12T20:07:27.405Z,7.37
2022-10-12T20:10:13.986Z,7.40
2022-10-12T20:13:00.118Z,7.60
2022-10-12T20:15:46.770Z,7.90
2022-10-12T20:18:33.246Z,7.70
2022-10-12T20:21:22.348Z,7.20
2022-10-12T20:24:11.008Z,8.27
2022-10-12T20:26:57.458Z,7.10
2022-10-12T20:29:43.805Z,7.73
2022-10-12T20:32:30.302Z,8.27
2022-10-12T20:35:16.770Z,8.23
2022-10-12T20:38:03.979Z,8.03
2022-10-12T20:41:02.367Z,30.13
2022-10-12T20:43:49.242Z,10.93
2022-10-12T20:46:35.643Z,13.97
2022-10-12T20:49:22.042Z,14.43
2022-10-12T20:52:08.613Z,10.53
2022-10-12T20:54:54.843Z,8.73
2022-10-12T20:57:42.560Z,8.47
2022-10-12T21:00:28.981Z,8.73
2022-10-12T21:03:15.330Z,9.73
2022-10-12T21:06:06.390Z,9.93
2022-10-12T21:08:54.501Z,9.80
2022-10-12T21:11:40.911Z,10.67
2022-10-12T21:14:28.449Z,10.97
2022-10-12T21:17:14.703Z,11.07
2022-10-12T21:20:01.040Z,10.63
2022-10-12T21:22:47.674Z,11.83
2022-10-12T21:25:33.927Z,13.03
2022-10-12T21:28:21.667Z,11.70
2022-10-12T21:31:09.563Z,11.20
2022-10-12T21:33:56.208Z,11.47
2022-10-12T21:36:42.728Z,10.23
2022-10-12T21:39:29.502Z,11.03
2022-10-12T21:42:15.959Z,11.50
2022-10-12T21:45:02.806Z,10.27
2022-10-12T21:47:50.461Z,9.97
2022-10-12T21:50:36.938Z,10.23
2022-10-12T21:53:23.234Z,11.07
2022-10-12T21:56:11.126Z,9.20
2022-10-12T21:58:58.618Z,9.70
2022-10-12T22:01:45.146Z,9.50
2022-10-12T22:04:32.972Z,9.73
2022-10-12T22:07:19.434Z,8.97
2022-10-12T22:10:06.577Z,9.53
2022-10-12T22:12:52.774Z,9.43
2022-10-12T22:15:39.454Z,12.70
2022-10-12T22:18:25.846Z,8.50
2022-10-12T22:21:16.928Z,9.30
2022-10-12T22:24:03.775Z,9.30
2022-10-12T22:26:50.366Z,10.50
2022-10-12T22:29:36.780Z,10.93
2022-10-12T22:32:23.434Z,11.50
2022-10-12T22:35:10.186Z,10.00
2022-10-12T22:37:58.028Z,10.97
2022-10-12T22:40:44.482Z,10.50
2022-10-12T22:43:31.713Z,11.43
2022-10-12T22:46:18.364Z,10.37
2022-10-12T22:49:04.973Z,10.87
2022-10-12T22:51:51.201Z,10.67
2022-10-12T22:54:38.717Z,9.60
2022-10-12T22:57:25.382Z,11.07
2022-10-12T23:00:13.731Z,10.40
2022-10-12T23:02:59.978Z,9.60
2022-10-12T23:05:49.338Z,9.40
2022-10-12T23:08:36.216Z,9.40
2022-10-12T23:11:25.873Z,11.37
2022-10-12T23:14:12.550Z,10.80
2022-10-12T23:16:58.987Z,10.50
2022-10-12T23:19:45.496Z,27.97
2022-10-12T23:22:31.967Z,21.63
2022-10-12T23:25:18.438Z,11.17
2022-10-12T23:28:05.952Z,10.20
2022-10-12T23:30:52.161Z,10.30
2022-10-12T23:33:38.478Z,10.10
2022-10-12T23:36:25.068Z,10.93
2022-10-12T23:39:11.186Z,9.70
2022-10-12T23:41:57.888Z,10.80
2022-10-12T23:44:45.264Z,10.23
2022-10-12T23:47:31.965Z,9.30
2022-10-12T23:50:18.633Z,10.33
2022-10-12T23:53:05.182Z,10.83
2022-10-12T23:55:52.342Z,10.70
2022-10-12T23:58:40.542Z,11.00
